createdAt,value
2019-01-09T00:01:37.081Z,85.77
2019-01-09T00:04:06.893Z,86.10
2019-01-09T00:06:36.620Z,85.81
2019-01-09T00:09:08.260Z,85.32
2019-01-09T00:11:38.060Z,85.27
2019-01-09T00:14:07.806Z,85.32
2019-01-09T00:16:37.615Z,84.98
2019-01-09T00:19:07.284Z,85.33
2019-01-09T00:21:37.137Z,85.79
2019-01-09T00:24:06.933Z,86.42
2019-01-09T00:26:36.623Z,86.74
2019-01-09T00:29:06.543Z,86.83
2019-01-09T00:31:36.307Z,85.58
2019-01-09T00:34:06.182Z,86.05
2019-01-09T00:36:36.003Z,85.88
2019-01-09T00:39:07.790Z,85.83
2019-01-09T00:41:37.553Z,85.74
2019-01-09T00:44:07.369Z,85.94
2019-01-09T00:46:37.204Z,86.25
2019-01-09T00:49:07.083Z,86.02
2019-01-09T00:51:37.378Z,85.62
2019-01-09T00:54:07.249Z,85.51
2019-01-09T00:56:37.104Z,84.67
2019-01-09T00:59:06.963Z,84.43
2019-01-09T01:01:36.861Z,84.42
2019-01-09T01:04:35.370Z,84.90
2019-01-09T01:07:47.524Z,84.83
2019-01-09T01:10:50.286Z,84.66
2019-01-09T01:13:30.436Z,83.59
2019-01-09T01:16:53.359Z,84.02
2019-01-09T01:19:54.683Z,83.73
2019-01-09T01:22:31.760Z,83.19
2019-01-09T01:25:27.071Z,82.75
2019-01-09T01:28:19.313Z,82.73
2019-01-09T01:31:15.700Z,83.04
2019-01-09T01:34:04.828Z,82.26
2019-01-09T01:37:32.243Z,81.54
2019-01-09T01:40:18.802Z,82.25
2019-01-09T01:43:10.932Z,81.85
2019-01-09T01:46:02.591Z,82.11
2019-01-09T01:48:51.542Z,82.26
2019-01-09T01:51:51.186Z,81.82
2019-01-09T01:54:52.421Z,81.87
2019-01-09T01:57:51.977Z,82.15
2019-01-09T02:00:37.922Z,82.05
2019-01-09T02:03:36.364Z,81.45
2019-01-09T02:06:39.285Z,81.24
2019-01-09T02:09:31.252Z,81.51
2019-01-09T02:12:05.562Z,81.76
2019-01-09T02:14:51.802Z,81.74
2019-01-09T02:17:35.059Z,81.21
2019-01-09T02:20:15.031Z,81.59
2019-01-09T02:22:55.218Z,80.95
2019-01-09T02:25:41.372Z,81.45
2019-01-09T02:28:30.044Z,82.02
2019-01-09T02:31:13.007Z,83.20
2019-01-09T02:33:42.691Z,84.41
2019-01-09T02:36:13.659Z,85.45
2019-01-09T02:38:43.627Z,84.30
2019-01-09T02:41:13.308Z,84.86
2019-01-09T02:43:43.096Z,85.09
2019-01-09T02:46:12.779Z,84.69
2019-01-09T02:48:42.442Z,84.20
2019-01-09T02:51:12.151Z,83.86
2019-01-09T02:53:41.849Z,84.11
2019-01-09T02:56:11.501Z,84.94
2019-01-09T02:58:41.184Z,84.49
2019-01-09T03:01:10.846Z,84.99
2019-01-09T03:03:40.543Z,84.06
2019-01-09T03:06:10.285Z,83.95
2019-01-09T03:08:40.024Z,83.89
2019-01-09T03:11:09.770Z,84.29
2019-01-09T03:13:39.537Z,84.43
2019-01-09T03:16:09.287Z,84.60
2019-01-09T03:18:39.337Z,84.58
2019-01-09T03:21:09.054Z,84.49
2019-01-09T03:23:38.733Z,84.32
2019-01-09T03:26:08.612Z,83.89
2019-01-09T03:28:38.345Z,84.34
2019-01-09T03:31:08.082Z,84.91
2019-01-09T03:33:37.866Z,84.08
2019-01-09T03:36:07.654Z,84.03
2019-01-09T03:38:37.527Z,83.85
2019-01-09T03:41:07.336Z,83.98
2019-01-09T03:43:37.326Z,84.08
2019-01-09T03:46:07.226Z,84.30
2019-01-09T03:48:36.864Z,84.16
2019-01-09T03:51:06.545Z,84.12
2019-01-09T03:53:36.222Z,84.32
2019-01-09T03:56:05.996Z,84.06
2019-01-09T03:58:35.721Z,84.22
2019-01-09T04:01:05.510Z,84.45
2019-01-09T04:03:35.188Z,84.51
2019-01-09T04:06:05.058Z,84.37
2019-01-09T04:08:34.732Z,83.99
2019-01-09T04:11:04.458Z,83.18
2019-01-09T04:13:34.219Z,83.31
2019-01-09T04:16:03.973Z,83.66
2019-01-09T04:18:33.655Z,83.29
2019-01-09T04:21:03.301Z,82.94
2019-01-09T04:23:33.073Z,83.25
2019-01-09T04:26:02.888Z,83.75
2019-01-09T04:28:32.587Z,83.02
2019-01-09T04:31:02.221Z,83.33
2019-01-09T04:33:31.923Z,83.67
2019-01-09T04:36:01.635Z,83.63
2019-01-09T04:38:31.392Z,83.71
2019-01-09T04:41:01.057Z,84.54
2019-01-09T04:43:30.708Z,84.34
2019-01-09T04:46:00.465Z,84.09
2019-01-09T04:48:30.110Z,83.46
2019-01-09T04:50:59.801Z,83.89
2019-01-09T04:53:29.480Z,84.02
2019-01-09T04:55:59.152Z,83.64
2019-01-09T04:58:28.826Z,83.82
2019-01-09T05:00:58.498Z,83.65
2019-01-09T05:03:28.158Z,83.75
2019-01-09T05:05:58.842Z,84.22
2019-01-09T05:08:28.504Z,84.72
2019-01-09T05:10:58.203Z,85.00
2019-01-09T05:13:27.879Z,84.55
2019-01-09T05:15:57.582Z,84.03
2019-01-09T05:18:27.338Z,83.40
2019-01-09T05:20:57.011Z,83.43
2019-01-09T05:23:26.689Z,83.31
2019-01-09T05:25:56.346Z,83.49
2019-01-09T05:28:26.008Z,83.13
2019-01-09T05:30:55.686Z,83.24
2019-01-09T05:33:25.416Z,83.09
2019-01-09T05:35:55.070Z,83.13
2019-01-09T05:38:24.827Z,83.35
2019-01-09T05:40:54.472Z,83.40
2019-01-09T05:43:24.153Z,83.72
2019-01-09T05:45:53.815Z,83.88
2019-01-09T05:48:23.581Z,83.53
2019-01-09T05:50:53.262Z,83.95
2019-01-09T05:53:22.916Z,84.37
2019-01-09T05:55:52.717Z,84.10
2019-01-09T05:58:22.372Z,83.25
2019-01-09T06:00:52.207Z,83.27
2019-01-09T06:03:21.897Z,83.43
2019-01-09T06:05:51.593Z,83.50
2019-01-09T06:08:21.381Z,83.31
2019-01-09T06:10:51.093Z,83.24
2019-01-09T06:13:20.741Z,83.31
2019-01-09T06:15:50.416Z,83.28
2019-01-09T06:18:20.102Z,83.47
2019-01-09T06:20:49.786Z,82.96
2019-01-09T06:23:19.460Z,83.46
2019-01-09T06:25:49.194Z,82.83
2019-01-09T06:28:18.845Z,82.61
2019-01-09T06:30:48.550Z,82.32
2019-01-09T06:33:18.186Z,82.37
2019-01-09T06:35:49.694Z,82.55
2019-01-09T06:38:19.402Z,82.88
2019-01-09T06:40:49.078Z,83.10
2019-01-09T06:43:18.819Z,83.42
2019-01-09T06:45:48.469Z,83.53
2019-01-09T06:48:18.240Z,82.84
2019-01-09T06:50:48.042Z,82.91
2019-01-09T06:53:17.762Z,83.77
2019-01-09T06:55:47.497Z,83.69
2019-01-09T06:58:17.288Z,83.37
2019-01-09T07:01:14.547Z,83.55
2019-01-09T07:03:48.801Z,83.20
2019-01-09T07:06:18.570Z,83.40
2019-01-09T07:08:49.005Z,83.90
2019-01-09T07:11:18.754Z,84.28
2019-01-09T07:13:58.109Z,84.03
2019-01-09T07:16:27.111Z,83.87
2019-01-09T07:19:12.268Z,84.02
2019-01-09T07:21:50.115Z,84.64
2019-01-09T07:24:21.573Z,84.20
2019-01-09T07:27:02.584Z,84.52
2019-01-09T07:40:30.270Z,84.17
2019-01-09T07:43:00.018Z,84.26
2019-01-09T07:45:29.700Z,84.32
2019-01-09T07:47:59.676Z,83.45
2019-01-09T07:50:29.406Z,83.66
2019-01-09T07:52:59.070Z,83.96
2019-01-09T07:55:28.823Z,83.35
2019-01-09T07:57:58.559Z,83.60
2019-01-09T08:02:43.156Z,83.99
2019-01-09T08:05:12.953Z,83.37
2019-01-09T08:07:42.596Z,83.33
2019-01-09T08:10:12.327Z,83.11
2019-01-09T08:12:42.092Z,82.95
2019-01-09T08:15:11.953Z,83.00
2019-01-09T08:19:16.777Z,82.67
2019-01-09T08:21:46.552Z,82.24
2019-01-09T08:24:16.361Z,82.37
2019-01-09T08:26:46.153Z,82.60
2019-01-09T08:29:15.922Z,83.26
2019-01-09T08:31:45.825Z,82.86
2019-01-09T08:34:15.638Z,82.74
2019-01-09T08:36:45.312Z,81.95
2019-01-09T08:39:15.008Z,81.77
2019-01-09T08:41:45.049Z,81.67
2019-01-09T08:44:14.803Z,81.56
2019-01-09T08:46:44.667Z,81.69
2019-01-09T08:49:14.433Z,81.29
2019-01-09T08:51:44.127Z,81.44
2019-01-09T08:54:13.836Z,81.75
2019-01-09T08:56:43.485Z,81.26
2019-01-09T08:59:13.184Z,81.36
2019-01-09T09:01:42.926Z,80.85
2019-01-09T09:04:12.653Z,80.06
2019-01-09T09:06:42.576Z,80.72
2019-01-09T09:09:12.455Z,80.50
2019-01-09T09:11:42.286Z,79.82
2019-01-09T09:14:11.937Z,79.84
2019-01-09T09:16:41.742Z,79.34
2019-01-09T09:19:11.539Z,79.11
2019-01-09T09:21:41.720Z,79.04
2019-01-09T09:24:11.567Z,78.80
2019-01-09T09:26:41.343Z,79.04
2019-01-09T09:29:11.114Z,78.86
2019-01-09T09:31:40.928Z,78.96
2019-01-09T09:34:10.708Z,78.42
2019-01-09T09:36:40.433Z,77.28
2019-01-09T09:39:11.041Z,77.71
2019-01-09T09:41:40.705Z,77.85
2019-01-09T09:44:10.459Z,78.26
2019-01-09T09:46:40.210Z,77.74
2019-01-09T09:49:10.066Z,77.55
2019-01-09T09:51:39.806Z,77.66
2019-01-09T09:54:09.506Z,76.63
2019-01-09T09:56:39.610Z,76.55
2019-01-09T09:59:09.332Z,75.96
2019-01-09T10:01:41.987Z,76.32
2019-01-09T10:04:11.699Z,75.75
2019-01-09T10:06:41.564Z,75.90
2019-01-09T10:09:11.301Z,76.00
2019-01-09T10:11:41.673Z,76.39
2019-01-09T10:14:11.382Z,76.22
2019-01-09T10:16:41.153Z,75.87
2019-01-09T10:19:11.778Z,76.01
2019-01-09T10:21:41.845Z,75.91
2019-01-09T10:24:11.579Z,76.04
2019-01-09T10:26:41.332Z,76.51
2019-01-09T10:29:11.016Z,76.04
2019-01-09T10:31:40.719Z,76.06
2019-01-09T10:34:10.440Z,75.29
2019-01-09T10:36:40.120Z,74.90
2019-01-09T10:39:10.429Z,74.57
2019-01-09T10:41:40.161Z,74.44
2019-01-09T10:44:18.612Z,73.39
2019-01-09T10:46:41.391Z,74.12
2019-01-09T10:49:11.094Z,73.05
2019-01-09T10:51:40.737Z,72.23
2019-01-09T10:54:10.468Z,71.13
2019-01-09T10:56:40.630Z,71.88
2019-01-09T10:59:11.357Z,71.97
2019-01-09T11:01:44.283Z,71.06
2019-01-09T11:04:14.035Z,70.22
2019-01-09T11:06:43.754Z,69.82
2019-01-09T11:09:13.474Z,69.14
2019-01-09T11:11:43.223Z,68.83
2019-01-09T11:14:12.895Z,69.38
2019-01-09T11:16:42.575Z,68.50
2019-01-09T11:19:12.397Z,68.99
2019-01-09T11:21:42.111Z,68.41
2019-01-09T11:24:11.749Z,66.29
2019-01-09T11:26:41.597Z,65.97
2019-01-09T11:29:11.333Z,66.56
2019-01-09T11:31:41.135Z,66.36
2019-01-09T11:36:50.998Z,65.16
2019-01-09T11:39:20.684Z,65.86
2019-01-09T11:41:50.530Z,65.43
2019-01-09T11:44:20.181Z,64.80
2019-01-09T11:46:49.978Z,65.04
2019-01-09T11:49:19.721Z,64.90
2019-01-09T11:51:49.562Z,64.72
2019-01-09T11:54:19.219Z,63.71
2019-01-09T11:56:48.979Z,64.08
2019-01-09T11:59:18.631Z,63.30
2019-01-09T12:01:48.462Z,64.06
2019-01-09T12:04:18.201Z,63.82
2019-01-09T12:06:48.033Z,64.00
2019-01-09T12:09:18.885Z,63.83
2019-01-09T12:11:48.710Z,64.27
2019-01-09T12:14:18.431Z,64.12
2019-01-09T12:16:48.219Z,64.01
2019-01-09T12:19:17.890Z,62.96
2019-01-09T12:21:48.758Z,62.05
2019-01-09T12:24:18.504Z,61.26
2019-01-09T12:26:49.963Z,62.29
2019-01-09T12:29:19.933Z,62.87
2019-01-09T12:31:49.636Z,63.68
2019-01-09T12:34:19.346Z,63.96
2019-01-09T12:36:48.999Z,63.86
2019-01-09T12:39:18.828Z,63.55
2019-01-09T12:41:48.538Z,62.83
2019-01-09T12:44:18.309Z,62.91
2019-01-09T12:46:47.980Z,62.03
2019-01-09T12:49:17.782Z,60.54
2019-01-09T12:51:47.651Z,60.51
2019-01-09T12:54:17.367Z,60.52
2019-01-09T12:56:47.048Z,61.05
2019-01-09T12:59:21.734Z,61.73
2019-01-09T13:01:48.342Z,62.07
2019-01-09T13:04:18.136Z,61.20
2019-01-09T13:06:47.987Z,61.37
2019-01-09T13:09:22.411Z,61.32
2019-01-09T13:11:49.164Z,61.13
2019-01-09T13:14:18.818Z,61.17
2019-01-09T13:16:48.490Z,60.83
2019-01-09T13:19:18.198Z,60.74
2019-01-09T13:21:48.046Z,59.83
2019-01-09T13:24:17.817Z,59.41
2019-01-09T13:26:47.546Z,59.43
2019-01-09T13:29:17.342Z,59.99
2019-01-09T13:31:47.054Z,61.41
2019-01-09T13:34:16.807Z,60.17
2019-01-09T13:36:46.503Z,59.93
2019-01-09T13:39:16.522Z,58.81
2019-01-09T13:41:46.306Z,59.36
2019-01-09T13:44:16.020Z,59.48
2019-01-09T13:46:45.861Z,58.33
2019-01-09T13:49:15.593Z,57.93
2019-01-09T13:51:45.346Z,56.92
2019-01-09T13:54:15.306Z,57.89
2019-01-09T13:56:45.150Z,58.78
2019-01-09T13:59:14.949Z,58.84
2019-01-09T14:01:44.605Z,57.42
2019-01-09T14:04:14.327Z,57.78
2019-01-09T14:06:43.997Z,58.16
2019-01-09T14:09:13.920Z,58.04
2019-01-09T14:11:43.568Z,58.59
2019-01-09T14:14:13.254Z,58.35
2019-01-09T14:16:42.921Z,58.03
2019-01-09T14:19:13.221Z,57.03
2019-01-09T14:21:43.033Z,56.90
2019-01-09T14:24:12.853Z,55.60
2019-01-09T14:26:42.968Z,55.49
2019-01-09T14:29:12.923Z,55.60
2019-01-09T14:31:42.623Z,55.59
2019-01-09T14:34:12.344Z,56.21
2019-01-09T14:36:42.122Z,56.21
2019-01-09T14:39:11.841Z,56.97
2019-01-09T14:41:44.436Z,56.51
2019-01-09T14:44:14.273Z,56.68
2019-01-09T14:46:44.025Z,56.37
2019-01-09T14:49:13.737Z,56.92
2019-01-09T14:51:43.747Z,56.73
2019-01-09T14:54:13.860Z,56.00
2019-01-09T14:56:43.579Z,56.19
2019-01-09T14:59:13.270Z,56.64
2019-01-09T15:01:43.280Z,56.46
2019-01-09T15:04:13.040Z,56.64
2019-01-09T15:06:42.797Z,57.03
2019-01-09T15:09:12.563Z,57.19
2019-01-09T15:11:42.293Z,57.47
2019-01-09T15:14:12.278Z,57.98
2019-01-09T15:16:41.970Z,58.24
2019-01-09T15:19:11.785Z,58.60
2019-01-09T15:21:41.685Z,58.89
2019-01-09T15:24:11.407Z,59.24
2019-01-09T15:26:41.189Z,59.67
2019-01-09T15:29:10.920Z,59.68
2019-01-09T15:31:40.752Z,60.05
2019-01-09T15:34:10.594Z,59.86
2019-01-09T15:36:40.507Z,60.20
2019-01-09T15:39:10.305Z,59.64
2019-01-09T15:41:40.134Z,59.96
2019-01-09T15:44:09.934Z,60.27
2019-01-09T15:46:39.641Z,60.51
2019-01-09T15:49:09.351Z,60.72
2019-01-09T15:51:40.734Z,60.95
2019-01-09T15:54:10.473Z,60.86
2019-01-09T15:56:40.177Z,61.53
2019-01-09T15:59:09.952Z,61.62
2019-01-09T16:01:39.657Z,61.83
2019-01-09T16:04:09.388Z,61.70
2019-01-09T16:06:39.182Z,61.90
2019-01-09T16:09:10.008Z,62.15
2019-01-09T16:11:39.902Z,62.38
2019-01-09T16:14:09.737Z,62.66
2019-01-09T16:16:39.428Z,63.04
2019-01-09T16:19:09.272Z,63.31
2019-01-09T16:21:40.290Z,63.33
2019-01-09T16:24:12.692Z,63.38
2019-01-09T16:26:42.726Z,63.48
2019-01-09T16:29:12.474Z,63.71
2019-01-09T16:31:42.227Z,63.92
2019-01-09T16:34:11.962Z,63.57
2019-01-09T16:36:41.716Z,63.61
2019-01-09T16:39:11.680Z,63.71
2019-01-09T16:41:41.434Z,64.11
2019-01-09T16:44:11.119Z,64.16
2019-01-09T16:46:40.877Z,64.25
2019-01-09T16:49:10.629Z,64.66
2019-01-09T16:51:40.305Z,64.69
2019-01-09T16:54:10.068Z,65.07
2019-01-09T16:56:39.753Z,65.00
2019-01-09T16:59:09.655Z,64.99
2019-01-09T17:01:42.410Z,65.14
2019-01-09T17:04:12.150Z,65.40
2019-01-09T17:06:41.832Z,64.89
2019-01-09T17:09:11.577Z,65.28
2019-01-09T17:11:41.341Z,65.60
2019-01-09T17:14:11.076Z,65.79
2019-01-09T17:16:40.821Z,66.17
2019-01-09T17:19:10.938Z,66.26
2019-01-09T17:21:40.896Z,66.54
2019-01-09T17:24:10.558Z,66.60
2019-01-09T17:26:40.259Z,66.66
2019-01-09T17:29:10.181Z,66.97
2019-01-09T17:31:40.065Z,67.05
2019-01-09T17:34:09.750Z,67.34
2019-01-09T17:36:39.598Z,67.29
2019-01-09T17:39:09.574Z,67.37
2019-01-09T17:41:40.922Z,67.41
2019-01-09T17:44:10.669Z,67.51
2019-01-09T17:46:40.320Z,67.46
2019-01-09T17:49:10.081Z,67.24
2019-01-09T17:51:39.789Z,67.45
2019-01-09T17:54:09.548Z,67.73
2019-01-09T17:56:40.641Z,67.69
2019-01-09T17:59:10.664Z,67.64
2019-01-09T18:01:40.391Z,67.54
2019-01-09T18:04:10.603Z,67.66
2019-01-09T18:06:40.421Z,67.69
2019-01-09T18:09:10.317Z,67.56
2019-01-09T18:11:40.106Z,67.58
2019-01-09T18:14:10.044Z,67.63
2019-01-09T18:16:39.830Z,67.88
2019-01-09T18:19:09.544Z,67.95
2019-01-09T18:21:40.933Z,67.92
2019-01-09T18:24:10.680Z,67.78
2019-01-09T18:26:40.602Z,67.68
2019-01-09T18:29:10.300Z,67.49
2019-01-09T18:31:50.424Z,67.27
2019-01-09T18:34:28.021Z,67.12
2019-01-09T18:37:13.160Z,67.15
2019-01-09T18:39:58.335Z,67.40
2019-01-09T18:42:42.768Z,67.60
2019-01-09T18:45:47.681Z,67.80
2019-01-09T18:48:47.231Z,67.73
2019-01-09T18:51:41.850Z,68.14
2019-01-09T18:54:11.787Z,68.14
2019-01-09T18:56:41.575Z,68.21
2019-01-09T18:59:11.741Z,68.64
2019-01-09T19:01:41.487Z,68.88
2019-01-09T19:04:11.428Z,68.69
2019-01-09T19:06:41.167Z,68.88
2019-01-09T19:09:11.870Z,68.93
2019-01-09T19:11:50.315Z,69.12
2019-01-09T19:14:13.173Z,68.94
2019-01-09T19:16:43.061Z,69.17
2019-01-09T19:19:12.907Z,69.27
2019-01-09T19:21:43.181Z,69.55
2019-01-09T19:24:13.007Z,69.67
2019-01-09T19:26:42.849Z,69.98
2019-01-09T19:29:13.124Z,69.85
2019-01-09T19:31:43.088Z,70.13
2019-01-09T19:34:13.028Z,70.49
2019-01-09T19:36:42.944Z,70.39
2019-01-09T19:39:12.872Z,70.62
2019-01-09T19:41:42.694Z,70.49
2019-01-09T19:44:12.384Z,70.74
2019-01-09T19:46:42.161Z,70.96
2019-01-09T19:49:12.034Z,71.03
2019-01-09T19:51:43.371Z,71.25
2019-01-09T19:54:13.139Z,71.37
2019-01-09T19:56:42.968Z,71.57
2019-01-09T19:59:12.910Z,71.79
2019-01-09T20:01:42.757Z,71.85
2019-01-09T20:04:12.852Z,71.75
2019-01-09T20:06:42.626Z,71.76
2019-01-09T20:09:12.579Z,71.50
2019-01-09T20:11:42.745Z,71.74
2019-01-09T20:14:12.711Z,71.88
2019-01-09T20:16:42.813Z,72.17
2019-01-09T20:19:12.611Z,72.07
2019-01-09T20:21:42.762Z,72.17
2019-01-09T20:24:12.558Z,72.49
2019-01-09T20:26:42.405Z,72.34
2019-01-09T20:29:12.275Z,72.34
2019-01-09T20:31:42.127Z,72.02
2019-01-09T20:34:12.140Z,72.17
2019-01-09T20:36:41.949Z,72.49
2019-01-09T20:39:12.049Z,72.76
2019-01-09T20:41:41.918Z,72.76
2019-01-09T20:44:11.839Z,72.82
2019-01-09T20:46:41.667Z,73.03
2019-01-09T20:49:11.489Z,73.25
2019-01-09T20:51:41.506Z,73.05
2019-01-09T20:54:11.345Z,73.16
2019-01-09T20:56:41.118Z,73.03
2019-01-09T20:59:11.078Z,73.16
2019-01-09T21:01:40.910Z,73.26
2019-01-09T21:04:11.039Z,73.24
2019-01-09T21:06:40.937Z,73.41
2019-01-09T21:09:11.338Z,73.59
2019-01-09T21:11:44.582Z,73.50
2019-01-09T21:14:12.610Z,73.59
2019-01-09T21:16:42.681Z,73.39
2019-01-09T21:19:12.528Z,73.62
2019-01-09T21:21:42.392Z,73.43
2019-01-09T21:24:12.094Z,73.27
2019-01-09T21:26:41.912Z,73.46
2019-01-09T21:29:11.576Z,73.09
2019-01-09T21:31:41.449Z,72.41
2019-01-09T21:34:11.272Z,72.33
2019-01-09T21:36:41.016Z,72.65
2019-01-09T21:39:11.158Z,73.12
2019-01-09T21:41:40.898Z,73.53
2019-01-09T21:44:15.808Z,73.40
2019-01-09T21:46:46.275Z,72.82
2019-01-09T21:49:13.813Z,73.13
2019-01-09T21:51:43.504Z,73.73
2019-01-09T21:54:13.386Z,73.97
2019-01-09T21:56:43.112Z,73.44
2019-01-09T21:59:12.811Z,73.25
2019-01-09T22:01:42.573Z,72.85
2019-01-09T22:04:12.451Z,73.13
2019-01-09T22:06:42.244Z,73.78
2019-01-09T22:09:11.975Z,74.06
2019-01-09T22:11:42.031Z,74.24
2019-01-09T22:14:11.981Z,74.47
2019-01-09T22:16:41.785Z,74.98
2019-01-09T22:19:12.296Z,75.36
2019-01-09T22:21:42.239Z,75.62
2019-01-09T22:24:11.962Z,75.56
2019-01-09T22:26:41.748Z,75.66
2019-01-09T22:29:11.607Z,75.52
2019-01-09T22:31:49.967Z,75.57
2019-01-09T22:34:20.440Z,75.61
2019-01-09T22:36:50.351Z,75.79
2019-01-09T22:39:20.141Z,76.26
2019-01-09T22:41:49.909Z,76.46
2019-01-09T22:44:19.781Z,76.85
2019-01-09T22:46:49.645Z,77.21
2019-01-09T22:49:19.406Z,77.53
2019-01-09T22:51:49.100Z,77.61
2019-01-09T22:54:18.893Z,77.58
2019-01-09T22:56:48.843Z,77.63
2019-01-09T22:59:18.749Z,77.85
2019-01-09T23:01:48.595Z,77.96
2019-01-09T23:04:18.460Z,78.20
2019-01-09T23:06:48.322Z,78.19
2019-01-09T23:09:18.074Z,78.02
2019-01-09T23:11:47.759Z,78.36
2019-01-09T23:14:17.505Z,77.98
2019-01-09T23:16:47.586Z,78.18
2019-01-09T23:19:17.502Z,78.31
2019-01-09T23:21:47.366Z,78.65
2019-01-09T23:24:17.184Z,78.80
2019-01-09T23:26:46.979Z,78.85
2019-01-09T23:29:16.882Z,79.00
2019-01-09T23:31:46.845Z,78.90
2019-01-09T23:34:16.668Z,78.55
2019-01-09T23:36:46.531Z,78.91
2019-01-09T23:39:16.215Z,78.82
2019-01-09T23:41:45.902Z,78.97
2019-01-09T23:44:15.854Z,79.29
2019-01-09T23:46:45.679Z,79.25
2019-01-09T23:49:15.358Z,79.34
2019-01-09T23:51:45.074Z,79.13
2019-01-09T23:54:14.828Z,78.96
2019-01-09T23:56:44.545Z,79.26
2019-01-09T23:59:14.624Z,79.12
